Winona, KS

1:31 PM CST on March 02, 2015 (GMT -0600)
Kit Carson County | Change Station
CLOSE
Current Station
Airport
Location: Burlington,
Elevation: 4216 ft
Nearby Weather Stations

Elev 4216 ft 39.24 °N, 102.28 °W | Updated 38 minutes ago

Overcast
Overcast
28 °F
Feels Like 13 °F
N
28
Wind Variable Wind from South
Gusts 34 mph

Today
High -- | Low -- °F
--% Chance of Precip.
Yesterday
High -- | Low -- °F
Precip. -- in
7:15 AM 6:37 PM
Waxing Gibbous, 92% visible
Pressure 30.03 in
Visibility 6.0 miles
Clouds Overcast 800 ft
Windchill 13 °F
Dew Point 23 °F
Humidity 81%
Rainfall 0.00 in
Snow Depth Not available.
UV 2 out of 12
Pollen 3.80 out of 12
Air Quality Not available.
Flu Activity Not available.
METAR KITR 021853Z AUTO 17024G30KT 6SM HZ OVC008 M02/M05 A2996 RMK AO2 PK WND 18030/1755 SLP168 T10221050

More Conditions Fewer Conditions

Pressure 30.03 in
Visibility 6.0 miles
Clouds Overcast 800 ft
Windchill 13 °F
Dew Point 23 °F
Humidity 81%
Rainfall 0.00 in
Snow Depth Not available.
UV 2 out of 12
Pollen 3.80 out of 12
Air Quality Not available.
Flu Activity Not available.
METAR KITR 021853Z AUTO 17024G30KT 6SM HZ OVC008 M02/M05 A2996 RMK AO2 PK WND 18030/1755 SLP168 T10221050

More Conditions Fewer Conditions

10-Day Weather Forecast

Almanac

Astronomy

Mar. 02, 2015 Rise Set
Actual Time
Civil Twilight
Nautical Twilight
Astronomical Twilight
Moon
Length of Visible Light
Length of Day
Tomorrow will be .
, % of the Moon is Illuminated

Today's Extremes

State Highs State Lows

Community

WunderPhotos

Upload Photos

1,801,920 photos uploaded!

WunderBlogs® & News

Nearby

Air Quality

  Air Quality AQ Index Pollutant
Not available.

Snow Depth

Station Depth Elevation

Earthquake Activity

City Distance Mag. Time & Date
Minimum magnitude displayed is 2.5.

Coastal Water Temperatures

Place Temperature

Nearby Weather Stations